createdAt,value
2023-04-20T00:00:59.972Z,3.11
2023-04-20T00:03:27.676Z,3.14
2023-04-20T00:05:54.822Z,3.11
2023-04-20T00:08:21.544Z,3.11
2023-04-20T00:10:48.348Z,3.14
2023-04-20T00:13:14.968Z,3.14
2023-04-20T00:15:41.722Z,3.13
2023-04-20T00:18:08.625Z,3.14
2023-04-20T00:20:35.752Z,3.01
2023-04-20T00:23:03.010Z,3.08
2023-04-20T00:25:30.730Z,3.10
2023-04-20T00:27:58.215Z,3.12
2023-04-20T00:30:25.228Z,3.14
2023-04-20T00:32:52.033Z,3.04
2023-04-20T00:35:18.684Z,3.04
2023-04-20T00:37:45.380Z,3.02
2023-04-20T00:40:12.340Z,3.05
2023-04-20T00:42:40.683Z,3.01
2023-04-20T00:45:08.043Z,2.94
2023-04-20T00:47:34.803Z,2.95
2023-04-20T00:50:02.643Z,2.88
2023-04-20T00:52:31.194Z,2.99
2023-04-20T00:54:58.617Z,3.03
2023-04-20T00:57:28.048Z,2.98
2023-04-20T00:59:54.579Z,2.96
2023-04-20T01:02:22.690Z,2.94
2023-04-20T01:04:49.694Z,2.98
2023-04-20T01:07:16.444Z,2.97
2023-04-20T01:09:43.358Z,2.97
2023-04-20T01:12:11.635Z,3.00
2023-04-20T01:14:38.572Z,2.98
2023-04-20T01:17:06.092Z,3.06
2023-04-20T01:19:33.600Z,3.02
2023-04-20T01:22:02.061Z,3.08
2023-04-20T01:24:29.027Z,3.08
2023-04-20T01:26:56.478Z,3.05
2023-04-20T01:29:23.102Z,2.96
2023-04-20T01:31:49.882Z,2.99
2023-04-20T01:34:19.653Z,3.01
2023-04-20T01:36:46.457Z,3.04
2023-04-20T01:39:13.181Z,3.03
2023-04-20T01:41:40.571Z,2.94
2023-04-20T01:44:07.102Z,2.93
2023-04-20T01:46:37.816Z,2.94
2023-04-20T01:49:08.093Z,2.92
2023-04-20T01:51:35.331Z,2.91
2023-04-20T01:54:03.019Z,2.96
2023-04-20T01:56:29.617Z,2.97
2023-04-20T01:58:58.275Z,2.94
2023-04-20T02:01:26.450Z,2.93
2023-04-20T02:03:53.465Z,2.94
2023-04-20T02:06:21.272Z,2.95
2023-04-20T02:08:48.019Z,2.93
2023-04-20T02:11:15.167Z,2.95
2023-04-20T02:13:41.715Z,2.96
2023-04-20T02:16:08.356Z,2.96
2023-04-20T02:18:35.125Z,3.04
2023-04-20T02:21:01.804Z,3.01
2023-04-20T02:23:28.450Z,3.02
2023-04-20T02:25:55.555Z,2.99
2023-04-20T02:28:22.159Z,2.93
2023-04-20T02:30:49.155Z,2.92
2023-04-20T02:33:15.870Z,2.90
2023-04-20T02:35:42.445Z,2.84
2023-04-20T02:38:11.007Z,2.87
2023-04-20T02:40:38.831Z,2.90
2023-04-20T02:43:05.937Z,2.91
2023-04-20T02:45:33.554Z,2.93
2023-04-20T02:48:00.636Z,2.88
2023-04-20T02:50:30.548Z,2.87
2023-04-20T02:53:23.440Z,2.90
2023-04-20T02:56:09.601Z,2.84
2023-04-20T02:58:42.755Z,2.75
2023-04-20T03:01:16.651Z,2.80
2023-04-20T03:03:45.333Z,2.74
2023-04-20T03:06:12.553Z,2.72
2023-04-20T03:08:42.012Z,2.74
2023-04-20T03:11:28.942Z,2.70
2023-04-20T03:13:56.472Z,2.64
2023-04-20T03:16:23.032Z,2.64
2023-04-20T03:18:52.330Z,2.68
2023-04-20T03:21:18.922Z,2.65
2023-04-20T03:23:45.908Z,2.68
2023-04-20T03:26:13.570Z,2.68
2023-04-20T03:29:02.936Z,2.64
2023-04-20T03:31:29.872Z,2.62
2023-04-20T03:33:57.759Z,2.64
2023-04-20T03:36:24.609Z,2.69
2023-04-20T03:38:51.324Z,2.65
2023-04-20T03:41:18.073Z,2.61
2023-04-20T03:43:44.698Z,2.60
2023-04-20T03:46:11.262Z,2.58
2023-04-20T03:48:38.586Z,2.64
2023-04-20T03:51:05.568Z,2.63
2023-04-20T03:53:32.160Z,2.63
2023-04-20T03:55:59.941Z,2.60
2023-04-20T03:58:27.025Z,2.55
2023-04-20T04:01:07.730Z,2.55
2023-04-20T04:03:37.029Z,2.52
2023-04-20T04:06:04.677Z,2.54
2023-04-20T04:08:32.833Z,2.60
2023-04-20T04:11:00.689Z,2.67
2023-04-20T04:13:27.779Z,2.63
2023-04-20T04:15:54.562Z,2.69
2023-04-20T04:18:22.542Z,2.69
2023-04-20T04:20:50.172Z,2.68
2023-04-20T04:23:17.130Z,2.72
2023-04-20T04:25:50.035Z,2.69
2023-04-20T04:28:21.712Z,2.70
2023-04-20T04:31:02.032Z,2.67
2023-04-20T04:33:29.570Z,2.61
2023-04-20T04:35:57.479Z,2.54
2023-04-20T04:38:24.392Z,2.55
2023-04-20T04:40:52.517Z,2.57
2023-04-20T04:43:20.255Z,2.58
2023-04-20T04:45:58.585Z,2.53
2023-04-20T04:48:26.095Z,2.52
2023-04-20T04:50:52.631Z,2.60
2023-04-20T04:53:19.450Z,2.60
2023-04-20T04:55:46.481Z,2.58
2023-04-20T04:58:13.301Z,2.60
2023-04-20T05:00:40.345Z,2.66
2023-04-20T05:03:07.045Z,2.74
2023-04-20T05:05:33.786Z,2.65
2023-04-20T05:08:00.486Z,2.67
2023-04-20T05:10:27.411Z,2.66
2023-04-20T05:12:54.084Z,2.71
2023-04-20T05:15:20.728Z,2.74
2023-04-20T05:17:49.616Z,2.79
2023-04-20T05:20:16.823Z,2.76
2023-04-20T05:22:43.723Z,2.90
2023-04-20T05:25:13.259Z,2.89
2023-04-20T05:27:40.789Z,3.00
2023-04-20T05:30:19.447Z,3.00
2023-04-20T05:32:51.173Z,3.14
2023-04-20T05:35:19.187Z,3.18
2023-04-20T05:37:47.302Z,3.19
2023-04-20T05:40:15.293Z,3.18
2023-04-20T05:42:41.914Z,3.29
2023-04-20T05:45:09.379Z,3.26
2023-04-20T05:47:36.205Z,3.26
2023-04-20T05:50:02.932Z,3.30
2023-04-20T05:52:29.570Z,3.28
2023-04-20T05:54:58.420Z,3.16
2023-04-20T05:57:25.135Z,3.10
2023-04-20T05:59:51.950Z,3.14
2023-04-20T06:02:18.581Z,3.13
2023-04-20T06:04:45.706Z,3.19
2023-04-20T06:07:12.651Z,3.20
2023-04-20T06:09:39.397Z,3.31
2023-04-20T06:12:06.262Z,3.35
2023-04-20T06:14:32.966Z,3.40
2023-04-20T06:16:59.509Z,3.55
2023-04-20T06:19:26.327Z,3.43
2023-04-20T06:21:52.908Z,3.40
2023-04-20T06:24:19.636Z,3.28
2023-04-20T06:26:46.232Z,3.18
2023-04-20T06:29:12.856Z,3.21
2023-04-20T06:31:39.984Z,3.31
2023-04-20T06:34:06.790Z,3.28
2023-04-20T06:36:33.535Z,3.38
2023-04-20T06:39:00.277Z,3.38
2023-04-20T06:41:27.101Z,3.39
2023-04-20T06:43:53.887Z,3.31
2023-04-20T06:46:20.460Z,3.30
2023-04-20T06:48:47.261Z,3.18
2023-04-20T06:51:14.220Z,3.29
2023-04-20T06:53:41.034Z,3.33
2023-04-20T06:56:08.010Z,3.32
2023-04-20T06:58:34.667Z,3.34
2023-04-20T07:01:02.185Z,3.18
2023-04-20T07:03:28.969Z,3.11
2023-04-20T07:05:55.887Z,3.15
2023-04-20T07:08:22.679Z,3.11
2023-04-20T07:10:49.308Z,3.06
2023-04-20T07:13:16.147Z,3.05
2023-04-20T07:15:45.206Z,3.05
2023-04-20T07:18:12.141Z,3.13
2023-04-20T07:20:39.255Z,3.17
2023-04-20T07:23:05.802Z,3.21
2023-04-20T07:25:32.921Z,3.18
2023-04-20T07:27:59.772Z,3.19
2023-04-20T07:30:27.027Z,3.29
2023-04-20T07:32:53.899Z,3.33
2023-04-20T07:35:20.740Z,3.35
2023-04-20T07:37:47.489Z,3.39
2023-04-20T07:40:14.209Z,3.35
2023-04-20T07:42:41.260Z,3.33
2023-04-20T07:45:08.552Z,3.43
2023-04-20T07:47:35.932Z,3.47
2023-04-20T07:50:06.623Z,3.57
2023-04-20T07:52:33.578Z,3.51
2023-04-20T07:55:00.325Z,3.56
2023-04-20T07:57:28.417Z,3.59
2023-04-20T07:59:55.099Z,3.66
2023-04-20T08:02:22.129Z,3.79
2023-04-20T08:04:49.855Z,3.89
2023-04-20T08:07:17.726Z,4.01
2023-04-20T08:09:44.347Z,3.96
2023-04-20T08:12:11.274Z,4.11
2023-04-20T08:14:38.290Z,4.07
2023-04-20T08:17:05.194Z,3.99
2023-04-20T08:19:31.820Z,4.09
2023-04-20T08:21:59.798Z,4.11
2023-04-20T08:24:28.189Z,4.04
2023-04-20T08:26:54.974Z,4.14
2023-04-20T08:29:21.765Z,4.16
2023-04-20T08:31:50.694Z,4.25
2023-04-20T08:34:18.972Z,4.27
2023-04-20T08:36:46.363Z,4.32
2023-04-20T08:39:15.523Z,4.42
2023-04-20T08:41:42.186Z,4.40
2023-04-20T08:44:08.894Z,4.44
2023-04-20T08:46:35.962Z,4.60
2023-04-20T08:49:04.009Z,4.83
2023-04-20T08:51:33.867Z,4.67
2023-04-20T08:54:07.818Z,4.81
2023-04-20T08:56:38.937Z,4.94
2023-04-20T08:59:09.439Z,4.71
2023-04-20T09:01:37.640Z,4.69
2023-04-20T09:04:27.141Z,4.66
2023-04-20T09:06:56.118Z,4.47
2023-04-20T09:09:24.661Z,4.44
2023-04-20T09:12:02.568Z,4.36
2023-04-20T09:14:29.863Z,4.27
2023-04-20T09:17:02.043Z,4.32
2023-04-20T09:19:30.203Z,4.35
2023-04-20T09:21:58.665Z,4.54
2023-04-20T09:24:37.551Z,4.37
2023-04-20T09:27:19.016Z,4.42
2023-04-20T09:29:57.961Z,4.36
2023-04-20T09:32:25.712Z,4.35
2023-04-20T09:34:52.329Z,4.29
2023-04-20T09:37:19.215Z,4.28
2023-04-20T09:39:46.974Z,4.23
2023-04-20T09:42:15.646Z,4.23
2023-04-20T09:44:45.983Z,4.40
2023-04-20T09:47:17.219Z,4.45
2023-04-20T09:49:47.611Z,4.70
2023-04-20T09:52:18.744Z,4.74
2023-04-20T09:54:45.955Z,4.59
2023-04-20T09:57:13.757Z,4.59
2023-04-20T09:59:44.418Z,4.51
2023-04-20T10:02:12.623Z,4.47
2023-04-20T10:04:52.808Z,4.56
2023-04-20T10:07:31.671Z,4.47
2023-04-20T10:10:12.792Z,4.56
2023-04-20T10:12:49.416Z,4.52
2023-04-20T10:15:16.862Z,4.52
2023-04-20T10:17:47.194Z,4.48
2023-04-20T10:20:26.238Z,4.22
2023-04-20T10:22:54.145Z,4.33
2023-04-20T10:25:24.493Z,4.40
2023-04-20T10:28:04.501Z,4.41
2023-04-20T10:30:32.787Z,4.37
2023-04-20T10:33:18.166Z,4.28
2023-04-20T10:35:54.703Z,4.35
2023-04-20T10:38:36.153Z,4.33
2023-04-20T10:41:10.402Z,4.21
2023-04-20T10:43:43.368Z,4.21
2023-04-20T10:46:22.162Z,4.37
2023-04-20T10:49:02.937Z,4.49
2023-04-20T10:51:29.949Z,4.41
2023-04-20T10:54:07.934Z,4.52
2023-04-20T10:56:42.524Z,4.61
2023-04-20T10:59:11.640Z,4.65
2023-04-20T11:01:38.880Z,4.87
2023-04-20T11:04:07.290Z,4.88
2023-04-20T11:06:35.051Z,4.85
2023-04-20T11:09:01.947Z,4.84
2023-04-20T11:11:28.742Z,4.86
2023-04-20T11:14:09.406Z,4.85
2023-04-20T11:16:49.696Z,4.86
2023-04-20T11:19:26.504Z,4.75
2023-04-20T11:21:53.351Z,4.80
2023-04-20T11:24:21.719Z,4.83
2023-04-20T11:26:54.052Z,5.00
2023-04-20T11:29:38.862Z,4.97
2023-04-20T11:32:07.787Z,5.25
2023-04-20T11:34:35.974Z,5.23
2023-04-20T11:37:11.631Z,5.09
2023-04-20T11:39:38.622Z,5.16
2023-04-20T11:42:06.340Z,5.17
2023-04-20T11:44:33.968Z,5.14
2023-04-20T11:47:01.914Z,5.14
2023-04-20T11:49:29.113Z,5.10
2023-04-20T11:51:55.675Z,5.07
2023-04-20T11:54:24.174Z,5.06
2023-04-20T11:56:51.503Z,4.99
2023-04-20T11:59:20.064Z,5.05
2023-04-20T12:01:48.017Z,5.23
2023-04-20T12:04:15.801Z,5.08
2023-04-20T12:06:42.988Z,5.28
2023-04-20T12:09:09.682Z,5.34
2023-04-20T12:11:36.391Z,5.40
2023-04-20T12:14:04.581Z,5.62
2023-04-20T12:16:31.735Z,5.70
2023-04-20T12:18:58.492Z,5.69
2023-04-20T12:21:25.103Z,5.68
2023-04-20T12:23:51.640Z,5.77
2023-04-20T12:26:18.416Z,5.78
2023-04-20T12:28:48.107Z,5.69
2023-04-20T12:31:14.824Z,5.51
2023-04-20T12:33:41.365Z,5.44
2023-04-20T12:36:08.390Z,5.42
2023-04-20T12:38:34.960Z,5.60
2023-04-20T12:41:02.005Z,5.53
2023-04-20T12:43:29.354Z,5.68
2023-04-20T12:45:56.016Z,5.83
2023-04-20T12:48:22.848Z,5.81
2023-04-20T12:50:50.763Z,5.98
2023-04-20T12:53:17.691Z,5.91
2023-04-20T12:55:44.445Z,6.03
2023-04-20T12:58:11.241Z,5.96
2023-04-20T13:00:37.995Z,5.90
2023-04-20T13:03:04.810Z,5.80
2023-04-20T13:05:31.792Z,5.75
2023-04-20T13:07:58.360Z,5.66
2023-04-20T13:10:25.224Z,5.65
2023-04-20T13:12:52.530Z,5.63
2023-04-20T13:15:32.007Z,5.81
2023-04-20T13:18:05.522Z,5.90
2023-04-20T13:20:32.675Z,5.87
2023-04-20T13:23:01.115Z,5.87
2023-04-20T13:25:30.011Z,5.76
2023-04-20T13:27:56.998Z,5.78
2023-04-20T13:30:24.598Z,5.54
2023-04-20T13:32:51.974Z,5.51
2023-04-20T13:35:19.230Z,5.64
2023-04-20T13:37:46.178Z,5.65
2023-04-20T13:40:12.997Z,5.69
2023-04-20T13:42:39.618Z,5.85
2023-04-20T13:45:06.948Z,5.90
2023-04-20T13:47:33.646Z,6.01
2023-04-20T13:50:00.264Z,6.00
2023-04-20T13:52:26.943Z,5.99
2023-04-20T13:54:53.534Z,5.90
2023-04-20T13:57:20.276Z,5.84
2023-04-20T13:59:46.773Z,5.93
2023-04-20T14:02:13.665Z,5.86
2023-04-20T14:04:40.298Z,5.86
2023-04-20T14:07:07.082Z,5.81
2023-04-20T14:09:33.741Z,5.85
2023-04-20T14:12:04.473Z,5.79
2023-04-20T14:14:31.705Z,5.82
2023-04-20T14:16:58.261Z,5.79
2023-04-20T14:19:24.810Z,5.87
2023-04-20T14:21:51.738Z,5.80
2023-04-20T14:24:18.470Z,5.95
2023-04-20T14:26:45.392Z,6.11
2023-04-20T14:29:12.254Z,6.17
2023-04-20T14:31:38.918Z,6.16
2023-04-20T14:34:05.542Z,6.16
2023-04-20T14:36:33.341Z,6.14
2023-04-20T14:38:59.989Z,6.24
2023-04-20T14:41:26.663Z,6.28
2023-04-20T14:43:53.457Z,6.16
2023-04-20T14:46:20.288Z,6.10
2023-04-20T14:48:47.192Z,6.11
2023-04-20T14:51:14.046Z,6.11
2023-04-20T14:53:40.597Z,6.21
2023-04-20T14:56:07.463Z,6.23
2023-04-20T14:58:34.525Z,6.39
2023-04-20T15:01:01.569Z,6.35
2023-04-20T15:03:28.278Z,6.43
2023-04-20T15:06:01.509Z,6.56
2023-04-20T15:08:28.413Z,6.70
2023-04-20T15:10:57.820Z,6.65
2023-04-20T15:13:25.064Z,6.63
2023-04-20T15:15:54.736Z,6.60
2023-04-20T15:18:21.702Z,6.69
2023-04-20T15:20:50.318Z,6.75
2023-04-20T15:23:17.137Z,6.70
2023-04-20T15:25:43.838Z,6.77
2023-04-20T15:28:11.253Z,6.81
2023-04-20T15:30:37.857Z,6.80
2023-04-20T15:33:05.548Z,6.73
2023-04-20T15:35:33.445Z,6.62
2023-04-20T15:38:00.833Z,6.61
2023-04-20T15:40:27.715Z,6.57
2023-04-20T15:42:58.884Z,6.50
2023-04-20T15:45:25.516Z,6.39
2023-04-20T15:47:52.215Z,6.22
2023-04-20T15:50:19.070Z,6.21
2023-04-20T15:52:49.703Z,6.28
2023-04-20T15:55:16.824Z,6.30
2023-04-20T15:57:44.699Z,6.25
2023-04-20T16:00:12.456Z,6.21
2023-04-20T16:02:40.418Z,6.20
2023-04-20T16:05:07.785Z,6.32
2023-04-20T16:07:34.483Z,6.35
2023-04-20T16:10:02.162Z,6.37
2023-04-20T16:12:29.087Z,6.28
2023-04-20T16:14:57.122Z,6.25
2023-04-20T16:17:24.006Z,6.28
2023-04-20T16:19:50.957Z,6.33
2023-04-20T16:22:18.007Z,6.32
2023-04-20T16:24:44.987Z,6.42
2023-04-20T16:27:11.708Z,6.29
2023-04-20T16:29:38.583Z,6.29
2023-04-20T16:32:05.907Z,6.19
2023-04-20T16:34:32.556Z,6.09
2023-04-20T16:36:59.722Z,6.08
2023-04-20T16:39:26.626Z,6.12
2023-04-20T16:41:53.277Z,6.20
2023-04-20T16:44:20.354Z,6.23
2023-04-20T16:46:51.320Z,6.30
2023-04-20T16:49:18.198Z,6.25
2023-04-20T16:51:44.938Z,6.25
2023-04-20T16:54:12.853Z,6.29
2023-04-20T16:56:40.109Z,6.32
2023-04-20T16:59:06.833Z,6.45
2023-04-20T17:01:33.740Z,6.26
2023-04-20T17:04:00.907Z,6.21
2023-04-20T17:06:27.970Z,6.25
2023-04-20T17:08:57.422Z,6.21
2023-04-20T17:11:24.317Z,6.15
2023-04-20T17:13:51.036Z,6.15
2023-04-20T17:16:17.610Z,6.13
2023-04-20T17:18:44.560Z,6.13
2023-04-20T17:21:11.110Z,6.12
2023-04-20T17:23:37.622Z,6.03
2023-04-20T17:26:04.400Z,5.93
2023-04-20T17:28:31.330Z,5.97
2023-04-20T17:30:58.212Z,5.90
2023-04-20T17:33:24.883Z,5.87
2023-04-20T17:35:51.542Z,5.87
2023-04-20T17:38:18.197Z,5.94
2023-04-20T17:40:44.812Z,5.94
2023-04-20T17:43:11.478Z,5.94
2023-04-20T17:45:38.167Z,5.98
2023-04-20T17:48:05.519Z,5.98
2023-04-20T17:50:32.968Z,6.00
2023-04-20T17:53:03.844Z,5.90
2023-04-20T17:55:30.456Z,6.00
2023-04-20T17:57:56.979Z,6.25
2023-04-20T18:00:23.958Z,6.49
2023-04-20T18:02:51.020Z,6.17
2023-04-20T18:05:18.170Z,5.98
2023-04-20T18:07:45.025Z,5.90
2023-04-20T18:10:13.521Z,5.75
2023-04-20T18:12:40.512Z,5.82
2023-04-20T18:15:08.449Z,5.70
2023-04-20T18:17:35.433Z,5.71
2023-04-20T18:20:02.019Z,6.02
2023-04-20T18:22:28.576Z,6.07
2023-04-20T18:24:55.343Z,6.10
2023-04-20T18:27:21.910Z,6.04
2023-04-20T18:29:49.495Z,5.86
2023-04-20T18:32:17.968Z,5.76
2023-04-20T18:34:44.690Z,5.75
2023-04-20T18:37:12.517Z,5.75
2023-04-20T18:39:40.140Z,5.64
2023-04-20T18:42:06.691Z,5.58
2023-04-20T18:44:33.537Z,5.61
2023-04-20T18:47:00.179Z,5.77
2023-04-20T18:49:26.909Z,5.90
2023-04-20T18:51:53.698Z,5.76
2023-04-20T18:54:20.306Z,5.86
2023-04-20T18:56:47.108Z,5.87
2023-04-20T18:59:13.949Z,5.80
2023-04-20T19:01:41.522Z,5.64
2023-04-20T19:04:09.053Z,5.61
2023-04-20T19:06:35.887Z,5.70
2023-04-20T19:09:02.636Z,5.74
2023-04-20T19:11:31.324Z,5.57
2023-04-20T19:13:58.076Z,5.62
2023-04-20T19:16:24.676Z,5.56
2023-04-20T19:18:51.474Z,5.78
2023-04-20T19:21:18.831Z,5.82
2023-04-20T19:23:47.520Z,5.62
2023-04-20T19:26:14.219Z,5.49
2023-04-20T19:28:40.758Z,5.41
2023-04-20T19:31:09.464Z,5.50
2023-04-20T19:33:36.237Z,5.72
2023-04-20T19:36:06.151Z,5.68
2023-04-20T19:38:34.746Z,5.72
2023-04-20T19:41:01.820Z,5.86
2023-04-20T19:43:28.380Z,5.66
2023-04-20T19:45:59.158Z,5.85
2023-04-20T19:48:25.955Z,5.67
2023-04-20T19:50:53.365Z,5.58
2023-04-20T19:53:19.916Z,5.58
2023-04-20T19:55:46.567Z,5.49
2023-04-20T19:58:13.423Z,5.44
2023-04-20T20:00:40.239Z,5.47
2023-04-20T20:03:10.492Z,5.35
2023-04-20T20:05:37.348Z,5.28
2023-04-20T20:08:04.369Z,5.30
2023-04-20T20:10:31.478Z,5.30
2023-04-20T20:12:58.150Z,5.31
2023-04-20T20:15:24.848Z,5.33
2023-04-20T20:17:55.224Z,5.25
2023-04-20T20:20:30.209Z,5.19
2023-04-20T20:22:56.992Z,5.35
2023-04-20T20:25:23.906Z,5.74
2023-04-20T20:27:51.089Z,5.72
2023-04-20T20:30:18.344Z,5.54
2023-04-20T20:32:45.061Z,5.41
2023-04-20T20:35:12.986Z,5.36
2023-04-20T20:37:40.618Z,5.25
2023-04-20T20:40:14.453Z,5.20
2023-04-20T20:42:45.110Z,5.15
2023-04-20T20:45:13.098Z,5.15
2023-04-20T20:47:41.313Z,5.13
2023-04-20T20:50:09.315Z,5.14
2023-04-20T20:52:36.046Z,5.12
2023-04-20T20:55:03.973Z,5.16
2023-04-20T20:57:31.016Z,5.26
2023-04-20T20:59:57.524Z,5.24
2023-04-20T21:02:24.431Z,5.26
2023-04-20T21:04:51.419Z,5.26
2023-04-20T21:07:18.206Z,5.18
2023-04-20T21:09:46.228Z,5.19
2023-04-20T21:12:12.817Z,5.23
2023-04-20T21:14:39.655Z,5.17
2023-04-20T21:17:06.275Z,5.08
2023-04-20T21:19:33.245Z,5.14
2023-04-20T21:21:59.943Z,5.19
2023-04-20T21:24:26.920Z,5.22
2023-04-20T21:26:53.604Z,5.27
2023-04-20T21:29:20.617Z,5.25
2023-04-20T21:31:47.615Z,5.21
2023-04-20T21:34:14.517Z,5.22
2023-04-20T21:36:41.196Z,5.24
2023-04-20T21:39:07.882Z,5.25
2023-04-20T21:41:34.835Z,5.26
2023-04-20T21:44:02.543Z,5.28
2023-04-20T21:46:29.590Z,5.19
2023-04-20T21:48:56.268Z,5.14
2023-04-20T21:51:23.006Z,5.13
2023-04-20T21:53:49.600Z,5.15
2023-04-20T21:56:18.227Z,5.16
2023-04-20T21:58:45.192Z,5.15
2023-04-20T22:01:11.787Z,5.21
2023-04-20T22:03:38.617Z,5.25
2023-04-20T22:06:06.445Z,5.29
2023-04-20T22:08:33.159Z,5.23
2023-04-20T22:10:59.926Z,5.18
2023-04-20T22:13:26.791Z,5.14
2023-04-20T22:15:53.468Z,5.12
2023-04-20T22:18:20.185Z,5.10
2023-04-20T22:20:46.961Z,5.15
2023-04-20T22:23:13.503Z,5.17
2023-04-20T22:25:40.967Z,5.17
2023-04-20T22:28:07.555Z,5.14
2023-04-20T22:30:35.708Z,5.16
2023-04-20T22:33:03.886Z,5.13
2023-04-20T22:35:30.719Z,5.16
2023-04-20T22:37:57.442Z,5.18
2023-04-20T22:40:24.298Z,5.22
2023-04-20T22:42:51.033Z,5.23
2023-04-20T22:45:19.745Z,5.22
2023-04-20T22:47:47.237Z,5.21
2023-04-20T22:50:13.986Z,5.17
2023-04-20T22:52:40.683Z,5.16
2023-04-20T22:55:08.962Z,5.14
2023-04-20T22:57:35.789Z,5.20
2023-04-20T23:00:06.345Z,5.25
2023-04-20T23:02:33.169Z,5.20
2023-04-20T23:04:59.955Z,5.18
2023-04-20T23:07:27.538Z,5.18
2023-04-20T23:09:56.370Z,5.18
2023-04-20T23:12:23.559Z,5.14
2023-04-20T23:14:50.833Z,5.11
2023-04-20T23:17:17.786Z,5.09
2023-04-20T23:19:44.628Z,5.09
2023-04-20T23:22:11.536Z,5.11
2023-04-20T23:24:38.474Z,5.12
2023-04-20T23:27:05.494Z,5.14
2023-04-20T23:29:33.028Z,5.07
2023-04-20T23:32:00.794Z,5.02
2023-04-20T23:34:27.416Z,4.98
2023-04-20T23:36:54.505Z,4.96
2023-04-20T23:39:21.702Z,4.98
2023-04-20T23:41:48.623Z,4.99
2023-04-20T23:44:15.380Z,5.00
2023-04-20T23:46:42.156Z,5.01
2023-04-20T23:49:08.971Z,4.99
2023-04-20T23:51:35.533Z,4.98
2023-04-20T23:54:02.234Z,4.98
2023-04-20T23:56:29.278Z,4.99
2023-04-20T23:58:56.029Z,4.97
